createdAt,value
2022-10-04T00:00:01.051Z,95.30
2022-10-04T00:01:01.060Z,95.30
2022-10-04T00:02:01.139Z,95.20
2022-10-04T00:03:01.038Z,95.30
2022-10-04T00:04:01.013Z,95.30
2022-10-04T00:05:01.012Z,95.40
2022-10-04T00:06:00.995Z,95.40
2022-10-04T00:07:00.977Z,95.40
2022-10-04T00:08:00.953Z,95.40
2022-10-04T00:09:00.945Z,95.40
2022-10-04T00:10:00.928Z,95.50
2022-10-04T00:11:00.919Z,95.50
2022-10-04T00:12:00.901Z,95.50
2022-10-04T00:13:00.889Z,95.61
2022-10-04T00:14:00.882Z,95.61
2022-10-04T00:15:00.863Z,95.61
2022-10-04T00:16:00.911Z,95.54
2022-10-04T00:17:00.835Z,95.54
2022-10-04T00:18:00.833Z,95.50
2022-10-04T00:19:00.837Z,95.50
2022-10-04T00:20:00.794Z,95.54
2022-10-04T00:21:00.784Z,95.50
2022-10-04T00:22:00.780Z,95.34
2022-10-04T00:23:00.755Z,95.34
2022-10-04T00:24:00.744Z,95.30
2022-10-04T00:25:00.735Z,95.24
2022-10-04T00:26:00.741Z,95.24
2022-10-04T00:27:00.743Z,95.14
2022-10-04T00:28:00.725Z,95.14
2022-10-04T00:29:00.694Z,95.14
2022-10-04T00:30:00.674Z,95.14
2022-10-04T00:31:00.693Z,95.24
2022-10-04T00:32:00.634Z,95.24
2022-10-04T00:33:00.625Z,95.04
2022-10-04T00:34:00.603Z,95.04
2022-10-04T00:35:00.612Z,95.04
2022-10-04T00:36:00.627Z,95.04
2022-10-04T00:37:00.605Z,95.14
2022-10-04T00:38:00.585Z,95.04
2022-10-04T00:39:00.577Z,94.93
2022-10-04T00:40:00.589Z,94.93
2022-10-04T00:41:00.527Z,94.93
2022-10-04T00:42:00.538Z,94.93
2022-10-04T00:43:00.505Z,94.93
2022-10-04T00:44:00.492Z,94.93
2022-10-04T00:45:00.485Z,94.84
2022-10-04T00:46:00.545Z,94.84
2022-10-04T00:47:00.435Z,94.73
2022-10-04T00:48:00.434Z,94.73
2022-10-04T00:49:00.443Z,94.63
2022-10-04T00:50:00.406Z,94.63
2022-10-04T00:51:00.396Z,94.53
2022-10-04T00:52:00.386Z,94.53
2022-10-04T00:53:00.366Z,94.43
2022-10-04T00:54:00.376Z,94.32
2022-10-04T00:55:00.350Z,94.43
2022-10-04T00:56:00.347Z,94.43
2022-10-04T00:57:00.328Z,94.43
2022-10-04T00:58:00.304Z,94.53
2022-10-04T00:59:00.285Z,94.43
2022-10-04T01:00:00.316Z,94.43
2022-10-04T01:01:00.318Z,94.43
2022-10-04T01:02:00.346Z,94.32
2022-10-04T01:03:00.237Z,94.32
2022-10-04T01:04:00.245Z,94.43
2022-10-04T01:05:00.219Z,94.32
2022-10-04T01:06:00.219Z,94.32
2022-10-04T01:07:00.187Z,94.32
2022-10-04T01:08:00.177Z,94.23
2022-10-04T01:09:00.183Z,94.23
2022-10-04T01:10:00.163Z,94.23
2022-10-04T01:11:00.150Z,94.02
2022-10-04T01:12:00.120Z,94.12
2022-10-04T01:13:00.107Z,94.02
2022-10-04T01:14:00.099Z,94.02
2022-10-04T01:15:00.102Z,93.92
2022-10-04T01:16:00.241Z,93.82
2022-10-04T01:17:07.055Z,93.51
2022-10-04T01:18:01.939Z,93.41
2022-10-04T01:19:00.026Z,93.62
2022-10-04T01:20:00.058Z,93.55
2022-10-04T01:21:00.008Z,93.55
2022-10-04T01:21:59.988Z,93.66
2022-10-04T01:22:59.970Z,93.66
2022-10-04T01:23:59.966Z,93.66
2022-10-04T01:24:59.945Z,93.55
2022-10-04T01:25:59.935Z,93.55
2022-10-04T01:26:59.916Z,93.45
2022-10-04T01:27:59.919Z,93.35
2022-10-04T01:28:59.899Z,93.35
2022-10-04T01:29:59.896Z,93.35
2022-10-04T01:30:59.970Z,93.35
2022-10-04T01:31:59.887Z,93.45
2022-10-04T01:32:59.847Z,93.45
2022-10-04T01:33:59.849Z,93.45
2022-10-04T01:34:59.828Z,93.35
2022-10-04T01:35:59.838Z,93.45
2022-10-04T01:36:59.795Z,93.55
2022-10-04T01:37:59.777Z,93.66
2022-10-04T01:38:59.768Z,93.66
2022-10-04T01:39:59.757Z,93.76
2022-10-04T01:40:59.737Z,93.86
2022-10-04T01:41:59.747Z,94.01
2022-10-04T01:42:59.706Z,94.11
2022-10-04T01:43:59.697Z,94.11
2022-10-04T01:44:59.688Z,94.11
2022-10-04T01:45:59.711Z,94.11
2022-10-04T01:46:59.688Z,94.11
2022-10-04T01:47:59.699Z,94.11
2022-10-04T01:48:59.650Z,94.21
2022-10-04T01:49:59.658Z,94.21
2022-10-04T01:50:59.619Z,94.31
2022-10-04T01:51:59.626Z,94.31
2022-10-04T01:52:59.587Z,94.31
2022-10-04T01:53:59.578Z,94.31
2022-10-04T01:54:59.562Z,94.31
2022-10-04T01:55:59.547Z,94.31
2022-10-04T01:56:59.555Z,94.42
2022-10-04T01:57:59.518Z,94.42
2022-10-04T01:58:59.517Z,94.52
2022-10-04T01:59:59.508Z,94.52
2022-10-04T02:00:59.537Z,94.52
2022-10-04T02:01:59.490Z,94.52
2022-10-04T02:02:59.467Z,94.42
2022-10-04T02:03:59.453Z,94.52
2022-10-04T02:04:59.559Z,94.31
2022-10-04T02:05:59.428Z,94.42
2022-10-04T02:06:59.450Z,94.52
2022-10-04T02:07:59.411Z,94.52
2022-10-04T02:08:59.390Z,94.62
2022-10-04T02:09:59.378Z,94.62
2022-10-04T02:10:59.360Z,94.72
2022-10-04T02:11:59.350Z,94.62
2022-10-04T02:12:59.347Z,94.62
2022-10-04T02:13:59.329Z,94.62
2022-10-04T02:14:59.308Z,94.62
2022-10-04T02:15:59.345Z,94.62
2022-10-04T02:16:59.281Z,94.62
2022-10-04T02:17:59.271Z,94.52
2022-10-04T02:18:59.271Z,94.52
2022-10-04T02:19:59.248Z,94.42
2022-10-04T02:20:59.241Z,94.31
2022-10-04T02:21:59.231Z,94.31
2022-10-04T02:22:59.219Z,94.21
2022-10-04T02:23:59.201Z,94.21
2022-10-04T02:24:59.241Z,94.21
2022-10-04T02:25:59.183Z,94.21
2022-10-04T02:26:59.151Z,94.11
2022-10-04T02:27:59.179Z,94.11
2022-10-04T02:28:59.132Z,94.11
2022-10-04T02:29:59.122Z,94.11
2022-10-04T02:30:59.151Z,94.01
2022-10-04T02:31:59.099Z,93.90
2022-10-04T02:32:59.078Z,93.90
2022-10-04T02:33:59.121Z,93.90
2022-10-04T02:34:59.053Z,93.90
2022-10-04T02:35:59.050Z,94.05
2022-10-04T02:36:59.039Z,94.15
2022-10-04T02:37:59.020Z,94.26
2022-10-04T02:38:59.000Z,94.26
2022-10-04T02:39:59.000Z,94.35
2022-10-04T02:40:58.983Z,94.35
2022-10-04T02:41:58.971Z,94.46
2022-10-04T02:42:58.952Z,94.35
2022-10-04T02:43:58.944Z,94.35
2022-10-04T02:44:58.942Z,94.50
2022-10-04T02:45:58.931Z,94.50
2022-10-04T02:46:58.902Z,94.60
2022-10-04T02:47:58.891Z,94.71
2022-10-04T02:48:58.882Z,94.71
2022-10-04T02:49:58.862Z,94.71
2022-10-04T02:50:58.871Z,94.71
2022-10-04T02:51:58.856Z,94.71
2022-10-04T02:52:58.820Z,94.71
2022-10-04T02:54:03.186Z,94.81
2022-10-04T02:54:58.800Z,94.91
2022-10-04T02:55:58.805Z,95.01
2022-10-04T02:56:58.773Z,95.01
2022-10-04T02:57:58.763Z,95.06
2022-10-04T02:58:58.744Z,95.06
2022-10-04T02:59:58.744Z,95.16
2022-10-04T03:00:58.790Z,95.16
2022-10-04T03:01:58.787Z,95.26
2022-10-04T03:02:58.737Z,95.36
2022-10-04T03:03:58.722Z,95.36
2022-10-04T03:04:58.672Z,95.47
2022-10-04T03:05:58.664Z,95.57
2022-10-04T03:06:58.652Z,95.57
2022-10-04T03:07:58.645Z,95.67
2022-10-04T03:08:58.616Z,95.67
2022-10-04T03:09:58.603Z,95.67
2022-10-04T03:10:58.582Z,95.67
2022-10-04T03:11:58.612Z,95.81
2022-10-04T03:12:58.574Z,95.81
2022-10-04T03:13:58.594Z,95.81
2022-10-04T03:14:58.545Z,95.81
2022-10-04T03:15:58.639Z,95.81
2022-10-04T03:16:58.522Z,95.81
2022-10-04T03:17:58.524Z,95.81
2022-10-04T03:18:58.495Z,95.92
2022-10-04T03:19:58.504Z,95.92
2022-10-04T03:20:58.463Z,95.92
2022-10-04T03:21:58.469Z,96.02
2022-10-04T03:22:58.433Z,96.02
2022-10-04T03:23:58.433Z,96.02
2022-10-04T03:24:58.396Z,95.92
2022-10-04T03:25:58.393Z,96.02
2022-10-04T03:26:58.375Z,96.02
2022-10-04T03:27:58.422Z,96.02
2022-10-04T03:28:58.363Z,96.12
2022-10-04T03:29:59.298Z,96.12
2022-10-04T03:30:58.365Z,96.12
2022-10-04T03:31:58.410Z,96.12
2022-10-04T03:32:58.303Z,96.02
2022-10-04T03:33:58.303Z,95.92
2022-10-04T03:34:58.274Z,95.92
2022-10-04T03:35:58.274Z,95.72
2022-10-04T03:36:58.284Z,95.72
2022-10-04T03:37:58.266Z,95.72
2022-10-04T03:38:58.245Z,95.61
2022-10-04T03:39:58.225Z,95.51
2022-10-04T03:40:58.205Z,95.41
2022-10-04T03:41:58.195Z,95.31
2022-10-04T03:42:58.195Z,95.31
2022-10-04T03:44:01.461Z,95.10
2022-10-04T03:44:59.154Z,95.00
2022-10-04T03:45:58.234Z,94.90
2022-10-04T03:46:58.124Z,94.75
2022-10-04T03:47:58.125Z,94.45
2022-10-04T03:48:58.094Z,94.24
2022-10-04T03:49:58.089Z,94.24
2022-10-04T03:50:58.097Z,94.14
2022-10-04T03:51:58.395Z,94.04
2022-10-04T03:52:58.050Z,93.93
2022-10-04T03:53:58.046Z,93.73
2022-10-04T03:54:58.018Z,93.73
2022-10-04T03:56:02.106Z,93.73
2022-10-04T03:56:58.996Z,93.84
2022-10-04T03:57:57.977Z,93.59
2022-10-04T03:58:58.027Z,93.59
2022-10-04T03:59:57.968Z,93.48
2022-10-04T04:00:57.982Z,93.28
2022-10-04T04:01:57.984Z,93.28
2022-10-04T04:02:57.914Z,93.28
2022-10-04T04:03:57.902Z,93.18
2022-10-04T04:04:57.895Z,92.87
2022-10-04T04:05:57.875Z,92.87
2022-10-04T04:06:57.856Z,92.97
2022-10-04T04:07:57.846Z,93.07
2022-10-04T04:08:57.845Z,93.18
2022-10-04T04:09:57.839Z,93.28
2022-10-04T04:10:57.831Z,93.38
2022-10-04T04:11:57.807Z,93.48
2022-10-04T04:12:57.788Z,93.48
2022-10-04T04:13:57.788Z,93.59
2022-10-04T04:14:57.766Z,93.69
2022-10-04T04:15:57.796Z,93.89
2022-10-04T04:16:57.728Z,93.89
2022-10-04T04:17:57.716Z,94.04
2022-10-04T04:18:57.707Z,94.14
2022-10-04T04:19:57.697Z,94.14
2022-10-04T04:20:57.677Z,94.34
2022-10-04T04:21:57.686Z,94.55
2022-10-04T04:22:57.667Z,94.75
2022-10-04T04:23:57.657Z,94.95
2022-10-04T04:24:57.718Z,95.16
2022-10-04T04:25:57.631Z,95.36
2022-10-04T04:26:57.631Z,95.57
2022-10-04T04:27:57.614Z,95.72
2022-10-04T04:28:57.588Z,95.92
2022-10-04T04:29:57.578Z,96.02
2022-10-04T04:30:57.567Z,96.22
2022-10-04T04:31:57.618Z,96.33
2022-10-04T04:32:57.537Z,96.43
2022-10-04T04:33:57.518Z,96.53
2022-10-04T04:34:57.497Z,96.63
2022-10-04T04:35:57.488Z,96.73
2022-10-04T04:36:57.498Z,96.98
2022-10-04T04:37:57.478Z,97.08
2022-10-04T04:38:57.459Z,97.19
2022-10-04T04:39:57.450Z,97.39
2022-10-04T04:40:57.445Z,97.49
2022-10-04T04:41:57.415Z,97.60
2022-10-04T04:42:57.408Z,97.70
2022-10-04T04:43:57.378Z,97.90
2022-10-04T04:44:57.367Z,98.00
2022-10-04T04:46:22.415Z,98.15
2022-10-04T04:46:58.395Z,98.25
2022-10-04T04:47:57.342Z,98.36
2022-10-04T04:48:57.331Z,98.56
2022-10-04T04:49:57.320Z,98.77
2022-10-04T04:50:57.312Z,98.86
2022-10-04T04:51:57.280Z,98.97
2022-10-04T04:52:57.300Z,99.07
2022-10-04T04:53:57.259Z,99.18
2022-10-04T04:54:57.262Z,99.18
2022-10-04T04:56:03.845Z,99.27
2022-10-04T04:56:58.211Z,99.38
2022-10-04T04:57:57.210Z,99.38
2022-10-04T04:58:57.189Z,99.48
2022-10-04T04:59:57.173Z,99.58
2022-10-04T05:00:57.244Z,99.68
2022-10-04T05:01:57.217Z,99.73
2022-10-04T05:02:58.801Z,99.84
2022-10-04T05:03:57.129Z,99.93
2022-10-04T05:04:57.121Z,99.93
2022-10-04T05:05:57.108Z,99.99
2022-10-04T05:06:57.103Z,99.99
2022-10-04T05:07:57.081Z,99.99
2022-10-04T05:08:57.070Z,99.99
2022-10-04T05:09:57.049Z,99.99
2022-10-04T05:10:57.160Z,99.99
2022-10-04T05:11:57.030Z,99.99
2022-10-04T05:12:57.009Z,99.99
2022-10-04T05:13:57.045Z,99.99
2022-10-04T05:14:56.984Z,99.99
2022-10-04T05:15:57.041Z,99.99
2022-10-04T05:16:57.071Z,99.99
2022-10-04T05:17:56.940Z,99.99
2022-10-04T05:18:58.812Z,99.99
2022-10-04T05:19:56.940Z,99.99
2022-10-04T05:20:57.116Z,99.99
2022-10-04T05:21:56.973Z,99.99
2022-10-04T05:22:56.882Z,99.99
2022-10-04T05:23:56.879Z,99.99
2022-10-04T05:24:56.860Z,99.99
2022-10-04T05:25:56.851Z,99.99
2022-10-04T05:26:56.831Z,99.99
2022-10-04T05:27:56.886Z,99.99
2022-10-04T05:28:56.821Z,99.99
2022-10-04T05:29:56.780Z,99.99
2022-10-04T05:30:56.779Z,99.99
2022-10-04T05:31:56.791Z,99.99
2022-10-04T05:32:56.750Z,99.99
2022-10-04T05:33:56.751Z,99.99
2022-10-04T05:34:56.720Z,99.99
2022-10-04T05:35:56.710Z,99.99
2022-10-04T05:36:56.705Z,99.99
2022-10-04T05:37:56.723Z,99.99
2022-10-04T05:38:56.693Z,99.99
2022-10-04T05:39:56.804Z,99.99
2022-10-04T05:40:56.643Z,99.99
2022-10-04T05:41:56.634Z,99.99
2022-10-04T05:42:56.619Z,99.99
2022-10-04T05:43:56.599Z,99.99
2022-10-04T05:44:56.613Z,99.99
2022-10-04T05:45:56.619Z,99.99
2022-10-04T05:46:56.573Z,99.99
2022-10-04T05:47:56.564Z,99.99
2022-10-04T05:48:56.542Z,99.99
2022-10-04T05:49:56.533Z,99.99
2022-10-04T05:50:56.534Z,99.89
2022-10-04T05:51:56.520Z,99.79
2022-10-04T05:52:56.482Z,99.79
2022-10-04T05:53:56.471Z,99.68
2022-10-04T05:54:56.451Z,99.58
2022-10-04T05:55:56.452Z,99.48
2022-10-04T05:56:56.461Z,99.48
2022-10-04T05:57:56.421Z,99.38
2022-10-04T05:58:56.410Z,99.27
2022-10-04T05:59:59.404Z,99.18
2022-10-04T06:00:57.441Z,99.02
2022-10-04T06:01:56.429Z,98.93
2022-10-04T06:02:56.427Z,98.72
2022-10-04T06:03:56.352Z,98.61
2022-10-04T06:04:56.342Z,98.41
2022-10-04T06:05:56.322Z,98.31
2022-10-04T06:06:56.334Z,98.06
2022-10-04T06:07:56.321Z,97.96
2022-10-04T06:08:56.273Z,97.86
2022-10-04T06:09:56.262Z,97.65
2022-10-04T06:10:56.272Z,97.45
2022-10-04T06:11:56.252Z,97.24
2022-10-04T06:12:56.242Z,97.04
2022-10-04T06:13:56.212Z,96.79
2022-10-04T06:14:56.210Z,96.59
2022-10-04T06:15:56.189Z,96.48
2022-10-04T06:16:56.278Z,96.28
2022-10-04T06:17:56.433Z,95.97
2022-10-04T06:18:56.183Z,95.83
2022-10-04T06:19:56.134Z,95.62
2022-10-04T06:20:56.127Z,95.21
2022-10-04T06:21:56.114Z,94.91
2022-10-04T06:22:56.163Z,94.81
2022-10-04T06:23:56.085Z,94.56
2022-10-04T06:24:56.093Z,94.35
2022-10-04T06:25:56.104Z,94.15
2022-10-04T06:26:56.051Z,93.54
2022-10-04T06:27:56.087Z,93.60
2022-10-04T06:28:56.043Z,93.29
2022-10-04T06:29:56.024Z,93.09
2022-10-04T06:30:56.067Z,92.58
2022-10-04T06:31:57.233Z,92.07
2022-10-04T06:32:55.988Z,91.83
2022-10-04T06:33:55.962Z,91.72
2022-10-04T06:34:56.056Z,91.62
2022-10-04T06:35:55.946Z,91.11
2022-10-04T06:36:55.925Z,90.81
2022-10-04T06:37:55.906Z,90.81
2022-10-04T06:38:55.907Z,90.77
2022-10-04T06:39:55.975Z,90.46
2022-10-04T06:40:55.883Z,90.46
2022-10-04T06:41:55.864Z,90.16
2022-10-04T06:42:55.925Z,89.70
2022-10-04T06:43:55.855Z,89.40
2022-10-04T06:44:55.824Z,89.40
2022-10-04T06:45:55.831Z,89.09
2022-10-04T06:46:55.807Z,88.89
2022-10-04T06:47:55.776Z,88.18
2022-10-04T06:48:55.774Z,88.34
2022-10-04T06:49:55.804Z,88.34
2022-10-04T06:50:55.745Z,88.04
2022-10-04T06:51:55.724Z,88.04
2022-10-04T06:52:55.735Z,87.89
2022-10-04T06:53:55.694Z,86.98
2022-10-04T06:54:55.711Z,86.98
2022-10-04T06:55:55.674Z,86.98
2022-10-04T06:56:55.656Z,86.77
2022-10-04T06:57:55.667Z,86.68
2022-10-04T06:58:55.647Z,86.68
2022-10-04T06:59:55.638Z,86.37
2022-10-04T07:00:55.643Z,86.37
2022-10-04T07:01:55.632Z,86.53
2022-10-04T07:02:55.660Z,86.22
2022-10-04T07:03:55.569Z,85.62
2022-10-04T07:05:08.104Z,86.02
2022-10-04T07:05:56.626Z,85.88
2022-10-04T07:06:55.536Z,85.27
2022-10-04T07:07:55.515Z,85.07
2022-10-04T07:08:55.507Z,85.17
2022-10-04T07:09:55.509Z,84.66
2022-10-04T07:10:55.518Z,85.07
2022-10-04T07:11:55.464Z,84.97
2022-10-04T07:12:55.458Z,85.17
2022-10-04T07:13:55.438Z,85.47
2022-10-04T07:14:55.430Z,85.17
2022-10-04T07:15:55.491Z,85.01
2022-10-04T07:17:02.431Z,85.07
2022-10-04T07:17:55.397Z,85.07
2022-10-04T07:18:55.377Z,84.97
2022-10-04T07:19:55.358Z,84.83
2022-10-04T07:20:55.358Z,84.42
2022-10-04T07:21:55.339Z,83.77
2022-10-04T07:22:55.319Z,83.67
2022-10-04T07:23:55.301Z,83.77
2022-10-04T07:24:55.500Z,83.51
2022-10-04T07:25:55.280Z,83.91
2022-10-04T07:26:55.280Z,84.52
2022-10-04T07:27:55.311Z,84.56
2022-10-04T07:28:55.251Z,84.87
2022-10-04T07:29:55.372Z,84.97
2022-10-04T07:30:55.256Z,85.31
2022-10-04T07:31:55.250Z,85.21
2022-10-04T07:32:55.204Z,85.52
2022-10-04T07:33:55.191Z,85.72
2022-10-04T07:34:55.215Z,85.82
2022-10-04T07:35:55.149Z,85.72
2022-10-04T07:36:55.140Z,85.62
2022-10-04T07:37:55.120Z,85.41
2022-10-04T07:38:55.110Z,85.21
2022-10-04T07:39:55.171Z,85.76
2022-10-04T07:40:55.098Z,85.96
2022-10-04T07:41:55.072Z,86.47
2022-10-04T07:42:55.071Z,86.27
2022-10-04T07:43:55.061Z,86.47
2022-10-04T07:44:55.050Z,86.51
2022-10-04T07:45:55.076Z,86.77
2022-10-04T07:46:55.018Z,86.57
2022-10-04T07:47:54.993Z,86.68
2022-10-04T07:48:55.001Z,86.27
2022-10-04T07:49:55.011Z,86.21
2022-10-04T07:50:54.983Z,86.71
2022-10-04T07:51:54.943Z,86.51
2022-10-04T07:52:54.942Z,86.82
2022-10-04T07:53:54.923Z,86.51
2022-10-04T07:54:54.931Z,86.71
2022-10-04T07:55:54.894Z,86.71
2022-10-04T07:56:54.893Z,86.41
2022-10-04T07:57:54.882Z,86.92
2022-10-04T07:58:54.863Z,87.02
2022-10-04T07:59:54.893Z,87.43
2022-10-04T08:00:54.832Z,87.43
2022-10-04T08:01:54.971Z,87.63
2022-10-04T08:02:54.935Z,87.73
2022-10-04T08:03:54.843Z,87.53
2022-10-04T08:04:54.783Z,87.73
2022-10-04T08:05:54.782Z,87.63
2022-10-04T08:06:54.776Z,87.87
2022-10-04T08:07:54.745Z,88.08
2022-10-04T08:08:54.746Z,88.18
2022-10-04T08:09:54.724Z,88.18
2022-10-04T08:10:57.271Z,88.48
2022-10-04T08:11:54.692Z,88.75
2022-10-04T08:12:54.696Z,88.24
2022-10-04T08:13:54.676Z,88.24
2022-10-04T08:14:54.681Z,87.84
2022-10-04T08:15:54.736Z,87.84
2022-10-04T08:16:54.643Z,87.93
2022-10-04T08:17:54.614Z,87.93
2022-10-04T08:18:54.614Z,88.13
2022-10-04T08:19:54.583Z,88.08
2022-10-04T08:20:54.564Z,88.44
2022-10-04T08:21:54.554Z,88.44
2022-10-04T08:22:54.596Z,88.34
2022-10-04T08:23:54.537Z,88.24
2022-10-04T08:24:54.545Z,88.24
2022-10-04T08:25:54.515Z,88.44
2022-10-04T08:26:54.514Z,88.24
2022-10-04T08:27:54.555Z,88.34
2022-10-04T08:28:54.485Z,88.44
2022-10-04T08:29:54.468Z,88.34
2022-10-04T08:30:54.480Z,88.44
2022-10-04T08:31:54.425Z,87.89
2022-10-04T08:32:54.415Z,87.49
2022-10-04T08:33:54.404Z,87.38
2022-10-04T08:34:54.394Z,86.53
2022-10-04T08:35:54.375Z,86.33
2022-10-04T08:36:54.365Z,86.63
2022-10-04T08:37:54.345Z,85.78
2022-10-04T08:38:54.367Z,85.52
2022-10-04T08:39:54.339Z,85.58
2022-10-04T08:40:54.326Z,84.97
2022-10-04T08:41:54.307Z,85.38
2022-10-04T08:42:54.310Z,85.07
2022-10-04T08:43:54.278Z,84.83
2022-10-04T08:44:54.307Z,84.22
2022-10-04T08:45:54.372Z,84.12
2022-10-04T08:46:54.293Z,84.22
2022-10-04T08:47:54.218Z,83.87
2022-10-04T08:48:54.207Z,83.47
2022-10-04T08:49:54.206Z,83.47
2022-10-04T08:50:54.177Z,83.37
2022-10-04T08:51:54.177Z,83.17
2022-10-04T08:52:54.157Z,82.86
2022-10-04T08:53:54.148Z,83.57
2022-10-04T08:54:54.148Z,83.26
2022-10-04T08:55:54.127Z,82.86
2022-10-04T08:56:54.109Z,83.31
2022-10-04T08:57:54.100Z,83.67
2022-10-04T08:58:54.080Z,82.96
2022-10-04T08:59:54.078Z,83.06
2022-10-04T09:00:54.070Z,83.26
2022-10-04T09:01:54.094Z,82.50
2022-10-04T09:02:54.088Z,82.39
2022-10-04T09:03:54.022Z,82.39
2022-10-04T09:04:53.998Z,81.64
2022-10-04T09:05:53.997Z,81.85
2022-10-04T09:06:53.976Z,81.34
2022-10-04T09:07:53.958Z,80.83
2022-10-04T09:08:53.949Z,81.04
2022-10-04T09:09:53.937Z,81.13
2022-10-04T09:10:53.930Z,80.69
2022-10-04T09:11:53.921Z,80.73
2022-10-04T09:12:53.901Z,80.32
2022-10-04T09:13:53.890Z,80.43
2022-10-04T09:14:53.871Z,80.49
2022-10-04T09:15:53.942Z,80.49
2022-10-04T09:16:53.862Z,79.74
2022-10-04T09:17:53.884Z,79.64
2022-10-04T09:18:53.809Z,79.85
2022-10-04T09:19:53.809Z,79.47
2022-10-04T09:20:53.792Z,79.68
2022-10-04T09:21:53.798Z,79.47
2022-10-04T09:22:53.763Z,79.78
2022-10-04T09:23:53.750Z,80.63
2022-10-04T09:24:53.738Z,80.32
2022-10-04T09:25:53.720Z,80.63
2022-10-04T09:26:53.743Z,80.73
2022-10-04T09:27:55.206Z,80.63
2022-10-04T09:28:53.691Z,80.63
2022-10-04T09:29:53.723Z,81.04
2022-10-04T09:30:53.699Z,81.24
2022-10-04T09:31:53.653Z,81.24
2022-10-04T09:32:53.653Z,80.39
2022-10-04T09:33:53.632Z,80.19
2022-10-04T09:34:53.612Z,80.49
2022-10-04T09:35:53.593Z,80.05
2022-10-04T09:36:53.581Z,79.24
2022-10-04T09:37:53.562Z,79.40
2022-10-04T09:39:06.120Z,78.75
2022-10-04T09:39:54.553Z,77.84
2022-10-04T09:40:53.522Z,77.30
2022-10-04T09:41:53.513Z,77.00
2022-10-04T09:42:53.523Z,77.10
2022-10-04T09:43:53.503Z,76.73
2022-10-04T09:44:53.490Z,76.73
2022-10-04T09:45:53.526Z,77.24
2022-10-04T09:46:56.488Z,77.44
2022-10-04T09:47:53.454Z,77.30
2022-10-04T09:48:53.462Z,76.79
2022-10-04T09:49:53.445Z,77.14
2022-10-04T09:50:53.402Z,77.44
2022-10-04T09:51:53.391Z,77.75
2022-10-04T09:52:53.383Z,77.37
2022-10-04T09:53:53.363Z,77.68
2022-10-04T09:54:53.355Z,77.48
2022-10-04T09:55:53.344Z,77.82
2022-10-04T09:56:53.338Z,78.19
2022-10-04T09:57:53.396Z,77.78
2022-10-04T09:58:53.303Z,77.98
2022-10-04T09:59:53.291Z,77.88
2022-10-04T10:00:53.295Z,78.59
2022-10-04T10:01:53.339Z,78.19
2022-10-04T10:02:53.337Z,77.78
2022-10-04T10:03:53.271Z,77.48
2022-10-04T10:04:53.225Z,77.58
2022-10-04T10:05:53.222Z,77.28
2022-10-04T10:06:53.206Z,76.87
2022-10-04T10:07:53.225Z,77.17
2022-10-04T10:08:53.187Z,77.64
2022-10-04T10:09:53.175Z,76.73
2022-10-04T10:10:53.147Z,76.53
2022-10-04T10:11:53.146Z,76.93
2022-10-04T10:12:53.127Z,76.73
2022-10-04T10:13:53.138Z,76.83
2022-10-04T10:14:53.095Z,76.63
2022-10-04T10:15:53.148Z,76.70
2022-10-04T10:16:53.075Z,76.29
2022-10-04T10:17:53.066Z,75.95
2022-10-04T10:18:53.055Z,75.95
2022-10-04T10:19:53.054Z,75.24
2022-10-04T10:20:53.026Z,75.31
2022-10-04T10:21:53.017Z,74.70
2022-10-04T10:22:52.998Z,73.79
2022-10-04T10:23:53.067Z,74.37
2022-10-04T10:24:58.110Z,73.90
2022-10-04T10:25:53.968Z,74.40
2022-10-04T10:26:52.968Z,74.77
2022-10-04T10:27:52.987Z,73.96
2022-10-04T10:28:52.928Z,73.72
2022-10-04T10:29:52.918Z,73.72
2022-10-04T10:30:52.958Z,73.11
2022-10-04T10:31:52.877Z,73.11
2022-10-04T10:32:52.868Z,72.81
2022-10-04T10:33:52.858Z,72.75
2022-10-04T10:34:52.838Z,72.34
2022-10-04T10:35:52.839Z,72.55
2022-10-04T10:36:52.818Z,72.55
2022-10-04T10:37:52.819Z,71.64
2022-10-04T10:38:52.799Z,72.64
2022-10-04T10:39:52.791Z,72.75
2022-10-04T10:40:52.778Z,73.22
2022-10-04T10:41:52.760Z,72.61
2022-10-04T10:42:52.921Z,72.75
2022-10-04T10:43:52.741Z,73.11
2022-10-04T10:44:52.710Z,72.98
2022-10-04T10:45:52.721Z,71.91
2022-10-04T10:46:52.830Z,72.00
2022-10-04T10:47:52.668Z,72.41
2022-10-04T10:48:52.659Z,72.34
2022-10-04T10:49:52.650Z,72.78
2022-10-04T10:50:52.630Z,73.19
2022-10-04T10:51:52.710Z,73.39
2022-10-04T10:52:52.599Z,73.39
2022-10-04T10:53:52.590Z,73.39
2022-10-04T10:54:52.581Z,73.79
2022-10-04T10:55:52.622Z,73.66
2022-10-04T10:56:52.584Z,73.35
2022-10-04T10:57:52.545Z,73.46
2022-10-04T10:58:52.522Z,72.75
2022-10-04T10:59:52.511Z,72.75
2022-10-04T11:00:52.524Z,72.85
2022-10-04T11:01:52.601Z,72.61
2022-10-04T11:02:52.587Z,72.61
2022-10-04T11:03:52.638Z,71.80
2022-10-04T11:04:52.455Z,71.91
2022-10-04T11:05:52.447Z,71.50
2022-10-04T11:06:52.454Z,72.51
2022-10-04T11:07:52.433Z,72.31
2022-10-04T11:08:52.403Z,72.51
2022-10-04T11:09:52.394Z,73.35
2022-10-04T11:10:52.390Z,73.62
2022-10-04T11:11:52.362Z,74.02
2022-10-04T11:12:52.333Z,73.93
2022-10-04T11:13:52.333Z,72.31
2022-10-04T11:14:52.318Z,72.11
2022-10-04T11:15:52.381Z,72.81
2022-10-04T11:16:52.304Z,72.68
2022-10-04T11:17:52.293Z,71.17
2022-10-04T11:18:52.285Z,71.26
2022-10-04T11:19:52.259Z,71.06
2022-10-04T11:20:52.259Z,70.86
2022-10-04T11:21:52.235Z,70.86
2022-10-04T11:22:52.285Z,70.69
2022-10-04T11:23:52.435Z,71.91
2022-10-04T11:24:52.317Z,71.06
2022-10-04T11:25:52.184Z,71.17
2022-10-04T11:26:52.167Z,70.76
2022-10-04T11:27:55.465Z,70.66
2022-10-04T11:28:53.135Z,70.89
2022-10-04T11:29:52.133Z,71.40
2022-10-04T11:30:52.144Z,70.96
2022-10-04T11:31:52.118Z,70.93
2022-10-04T11:32:52.084Z,69.92
2022-10-04T11:33:52.104Z,70.53
2022-10-04T11:34:52.065Z,70.49
2022-10-04T11:35:52.066Z,69.79
2022-10-04T11:36:52.096Z,69.48
2022-10-04T11:37:52.029Z,69.79
2022-10-04T11:38:52.061Z,70.22
2022-10-04T11:39:52.000Z,70.19
2022-10-04T11:40:51.980Z,69.99
2022-10-04T11:41:51.990Z,70.09
2022-10-04T11:42:51.976Z,69.38
2022-10-04T11:43:51.947Z,70.19
2022-10-04T11:44:51.970Z,70.02
2022-10-04T11:45:51.916Z,70.83
2022-10-04T11:46:51.958Z,70.59
2022-10-04T11:47:51.887Z,70.19
2022-10-04T11:48:51.891Z,70.15
2022-10-04T11:49:51.867Z,68.85
2022-10-04T11:50:51.853Z,69.18
2022-10-04T11:51:51.840Z,69.38
2022-10-04T11:52:51.830Z,70.02
2022-10-04T11:53:51.819Z,70.46
2022-10-04T11:54:51.810Z,70.96
2022-10-04T11:55:51.790Z,71.30
2022-10-04T11:56:51.780Z,71.60
2022-10-04T11:57:51.761Z,71.47
2022-10-04T11:58:51.749Z,71.06
2022-10-04T11:59:51.742Z,71.13
2022-10-04T12:00:51.729Z,71.13
2022-10-04T12:01:51.729Z,70.42
2022-10-04T12:02:51.701Z,71.13
2022-10-04T12:03:51.898Z,70.79
2022-10-04T12:04:51.846Z,71.23
2022-10-04T12:05:51.681Z,71.73
2022-10-04T12:06:51.767Z,70.32
2022-10-04T12:07:51.629Z,70.79
2022-10-04T12:08:51.640Z,69.99
2022-10-04T12:09:51.619Z,69.99
2022-10-04T12:10:51.598Z,70.59
2022-10-04T12:11:51.603Z,69.35
2022-10-04T12:12:51.582Z,69.12
2022-10-04T12:13:51.551Z,68.78
2022-10-04T12:14:51.592Z,68.68
2022-10-04T12:15:51.595Z,67.51
2022-10-04T12:16:51.533Z,66.91
2022-10-04T12:17:51.518Z,67.00
2022-10-04T12:18:51.494Z,66.67
2022-10-04T12:19:51.561Z,66.47
2022-10-04T12:20:51.482Z,65.87
2022-10-04T12:21:51.463Z,66.30
2022-10-04T12:22:51.433Z,66.83
2022-10-04T12:23:51.463Z,67.68
2022-10-04T12:24:51.431Z,67.77
2022-10-04T12:25:51.412Z,67.07
2022-10-04T12:26:51.394Z,67.91
2022-10-04T12:27:51.458Z,68.85
2022-10-04T12:28:51.353Z,69.18
2022-10-04T12:29:51.387Z,70.39
2022-10-04T12:30:51.346Z,70.93
2022-10-04T12:31:51.402Z,71.23
2022-10-04T12:32:54.359Z,71.57
2022-10-04T12:33:52.310Z,71.87
2022-10-04T12:34:51.286Z,72.71
2022-10-04T12:35:51.292Z,73.18
2022-10-04T12:36:51.284Z,73.08
2022-10-04T12:37:51.265Z,72.68
2022-10-04T12:38:51.233Z,73.28
2022-10-04T12:39:51.240Z,73.28
2022-10-04T12:40:51.216Z,72.78
2022-10-04T12:41:51.208Z,72.88
2022-10-04T12:42:51.174Z,72.98
2022-10-04T12:43:51.186Z,73.28
2022-10-04T12:44:51.156Z,73.38
2022-10-04T12:45:51.231Z,73.28
2022-10-04T12:46:51.154Z,73.35
2022-10-04T12:47:51.116Z,72.95
2022-10-04T12:48:51.108Z,72.61
2022-10-04T12:49:51.135Z,72.78
2022-10-04T12:50:51.077Z,71.67
2022-10-04T12:51:51.089Z,71.53